Time;durP1;ratioP1;P1;durP2;ratioP2;P2;SDS_P1;SDS_P2;PMS_P1;PMS_P2;Temp;Humidity;BMP_temperature;BMP_pressure;BME280_temperature;BME280_humidity;BME280_pressure;Samples;Min_cycle;Max_cycle;Signal;HPM_P1;HPM_P2
2022/12/01 00:01:28;;;;;;;70.82;34.03;;;4.50;99.90;;;;;;5056277;28;20223;-76
2022/12/01 00:03:55;;;;;;;79.30;38.47;;;4.60;99.90;;;;;;5074893;28;20224;-75
2022/12/01 00:06:22;;;;;;;62.85;35.15;;;4.60;99.90;;;;;;5076193;28;20228;-78
2022/12/01 00:11:38;;;;;;;67.95;36.22;;;4.60;99.90;;;;;;5075164;28;20316;-76
2022/12/01 00:14:06;;;;;;;71.18;37.00;;;4.60;99.90;;;;;;5068772;28;20219;-76
2022/12/01 00:16:39;;;;;;;62.05;33.72;;;4.60;99.90;;;;;;5064382;28;20251;-77
2022/12/01 00:19:07;;;;;;;57.10;29.38;;;4.60;99.90;;;;;;5076605;28;20331;-78
2022/12/01 00:21:34;;;;;;;53.92;30.50;;;4.60;99.90;;;;;;5075546;28;20654;-76
2022/12/01 00:24:01;;;;;;;55.50;32.00;;;4.50;99.90;;;;;;5075970;28;20251;-76
2022/12/01 00:26:29;;;;;;;55.78;29.05;;;4.50;99.90;;;;;;5068642;28;20243;-77
2022/12/01 00:28:58;;;;;;;55.55;33.08;;;4.50;99.90;;;;;;5076241;28;20224;-78
2022/12/01 00:31:25;;;;;;;60.38;31.05;;;4.60;99.90;;;;;;5074539;28;20981;-76
2022/12/01 00:33:54;;;;;;;60.08;34.25;;;4.40;99.90;;;;;;5077248;28;20244;-78
2022/12/01 00:36:21;;;;;;;57.22;30.30;;;4.40;99.90;;;;;;5076217;28;20306;-76
2022/12/01 00:38:52;;;;;;;57.70;31.52;;;4.40;99.90;;;;;;5075704;28;20297;-76
2022/12/01 00:41:19;;;;;;;56.72;33.58;;;4.40;99.90;;;;;;5075611;28;20678;-78
2022/12/01 00:43:47;;;;;;;54.95;34.20;;;4.30;99.90;;;;;;5074630;28;20669;-76
2022/12/01 00:46:14;;;;;;;55.53;31.17;;;4.30;99.90;;;;;;5075431;28;20228;-78
2022/12/01 00:48:41;;;;;;;63.75;34.95;;;4.20;99.90;;;;;;5075691;28;20227;-77
2022/12/01 00:51:10;;;;;;;65.10;34.80;;;4.30;99.90;;;;;;5075165;28;20314;-76
2022/12/01 00:53:37;;;;;;;70.95;34.50;;;4.30;99.90;;;;;;5075495;28;20243;-78
2022/12/01 00:56:04;;;;;;;64.63;36.67;;;4.30;99.90;;;;;;5075802;28;20248;-77
2022/12/01 00:58:32;;;;;;;64.35;33.90;;;4.30;99.90;;;;;;5075012;28;20224;-76
2022/12/01 01:01:02;;;;;;;64.72;34.50;;;4.30;99.90;;;;;;5075524;28;20715;-77
2022/12/01 01:03:30;;;;;;;65.00;36.92;;;4.40;99.90;;;;;;5062128;28;20283;-77
2022/12/01 01:06:03;;;;;;;57.17;32.38;;;4.40;99.90;;;;;;5075242;28;20302;-76
2022/12/01 01:08:31;;;;;;;66.40;35.40;;;4.40;99.90;;;;;;5074710;28;20216;-76
2022/12/01 01:11:07;;;;;;;65.25;35.25;;;4.40;99.90;;;;;;5075475;28;20228;-77
2022/12/01 01:13:35;;;;;;;64.57;35.00;;;4.50;99.90;;;;;;5073530;28;20281;-77
2022/12/01 01:16:13;;;;;;;70.53;38.70;;;4.40;99.90;;;;;;5074166;28;20505;-76
2022/12/01 01:18:54;;;;;;;74.95;37.22;;;4.40;99.90;;;;;;5070653;28;20250;-76
2022/12/01 01:21:25;;;;;;;64.95;36.00;;;4.40;99.90;;;;;;5072566;28;20349;-78
2022/12/01 01:23:55;;;;;;;62.17;36.22;;;4.40;99.90;;;;;;5074689;28;20220;-76
2022/12/01 01:26:23;;;;;;;71.30;38.47;;;4.40;99.90;;;;;;5064503;28;20273;-76
2022/12/01 01:28:52;;;;;;;67.88;33.25;;;4.40;99.90;;;;;;5074817;28;20247;-77
2022/12/01 01:31:20;;;;;;;72.25;35.55;;;4.40;99.90;;;;;;5074675;28;20315;-76
2022/12/01 01:33:48;;;;;;;63.03;34.50;;;4.30;99.90;;;;;;5074777;28;20315;-76
2022/12/01 01:36:17;;;;;;;60.25;37.58;;;4.20;99.90;;;;;;5074178;28;20297;-78
2022/12/01 01:38:46;;;;;;;70.43;33.92;;;4.20;99.90;;;;;;5073683;28;20604;-77
2022/12/01 01:41:29;;;;;;;;;;;;;;;;;;;;;
2022/12/01 01:43:58;;;;;;;59.80;31.67;;;4.10;99.90;;;;;;5073070;28;20686;-78
2022/12/01 01:46:27;;;;;;;63.47;33.17;;;4.20;99.90;;;;;;5074283;28;20251;-77
2022/12/01 01:48:57;;;;;;;77.70;35.90;;;4.30;99.90;;;;;;5079310;28;20316;-78
2022/12/01 01:51:28;;;;;;;57.65;34.88;;;4.30;99.90;;;;;;5074359;28;20269;-77
2022/12/01 01:54:02;;;;;;;62.05;33.97;;;4.40;99.90;;;;;;5074258;28;20311;-76
2022/12/01 01:56:31;;;;;;;71.88;35.83;;;4.30;99.90;;;;;;5065540;28;20219;-78
2022/12/01 01:58:59;;;;;;;65.78;34.50;;;4.40;99.90;;;;;;5073567;28;20256;-78
2022/12/01 02:01:30;;;;;;;72.05;38.28;;;4.30;99.90;;;;;;5073688;28;20330;-75
2022/12/01 02:04:04;;;;;;;64.70;34.50;;;4.30;99.90;;;;;;5074206;28;20622;-75
2022/12/01 02:06:31;;;;;;;57.75;33.25;;;4.40;99.90;;;;;;5073297;28;20230;-77
2022/12/01 02:08:58;;;;;;;70.90;35.47;;;4.30;99.90;;;;;;5073014;28;20696;-77
2022/12/01 02:11:52;;;;;;;63.42;34.13;;;4.20;99.90;;;;;;5072705;28;20247;-78
2022/12/01 02:14:33;;;;;;;70.82;36.65;;;4.20;99.90;;;;;;5060633;28;20224;-77
2022/12/01 02:17:09;;;;;;;72.13;38.78;;;4.20;99.90;;;;;;5053628;28;20225;-77
2022/12/01 02:20:11;;;;;;;72.20;37.70;;;4.20;99.90;;;;;;5055217;28;20530;-78
2022/12/01 02:22:48;;;;;;;66.75;34.67;;;4.20;99.90;;;;;;5054516;28;20244;-78
2022/12/01 02:25:24;;;;;;;73.07;35.38;;;4.10;99.90;;;;;;5073321;28;20247;-77
2022/12/01 02:28:22;;;;;;;77.45;36.58;;;4.10;99.90;;;;;;5073190;28;20318;-78
2022/12/01 02:30:56;;;;;;;80.38;36.08;;;4.00;99.90;;;;;;5071944;28;20239;-76
2022/12/01 02:33:31;;;;;;;76.10;37.28;;;4.00;99.90;;;;;;5073921;28;20243;-77
2022/12/01 02:36:03;;;;;;;72.53;36.85;;;4.10;99.90;;;;;;5074180;28;20710;-78
2022/12/01 02:38:35;;;;;;;72.45;37.50;;;4.10;99.90;;;;;;5074311;28;20247;-77
2022/12/01 02:41:10;;;;;;;62.72;35.60;;;4.10;99.90;;;;;;5073022;28;20227;-77
2022/12/01 02:43:44;;;;;;;75.53;34.88;;;4.10;99.90;;;;;;5073779;28;20319;-77
2022/12/01 02:46:16;;;;;;;71.28;34.22;;;4.00;99.90;;;;;;5074176;28;20605;-77
2022/12/01 02:48:48;;;;;;;80.53;36.42;;;4.10;99.90;;;;;;5074158;28;20273;-78
2022/12/01 02:51:20;;;;;;;76.63;37.58;;;4.10;99.90;;;;;;5071639;28;20220;-76
2022/12/01 02:53:48;;;;;;;75.72;39.10;;;4.10;99.90;;;;;;5074063;28;20608;-76
2022/12/01 02:56:30;;;;;;;82.38;35.75;;;4.10;99.90;;;;;;5074235;28;20220;-76
2022/12/01 02:58:57;;;;;;;80.75;37.65;;;4.10;99.90;;;;;;5073739;28;20236;-78
2022/12/01 03:01:37;;;;;;;81.35;38.13;;;4.10;99.90;;;;;;5074507;28;21006;-77
2022/12/01 03:04:27;;;;;;;80.88;37.60;;;4.10;99.90;;;;;;5072939;28;20302;-76
2022/12/01 03:07:08;;;;;;;77.53;38.15;;;4.10;99.90;;;;;;5069822;28;20228;-77
2022/12/01 03:09:47;;;;;;;76.43;37.80;;;4.10;99.90;;;;;;5078819;28;20230;-79
2022/12/01 03:12:20;;;;;;;80.50;38.08;;;4.10;99.90;;;;;;5074259;28;20258;-76
2022/12/01 03:14:57;;;;;;;81.40;41.80;;;4.20;99.90;;;;;;5074178;28;20220;-76
2022/12/01 03:17:30;;;;;;;73.57;38.60;;;4.10;99.90;;;;;;5074595;28;20681;-76
2022/12/01 03:20:07;;;;;;;88.07;40.65;;;4.20;99.90;;;;;;5072578;28;20756;-77
2022/12/01 03:22:39;;;;;;;80.78;39.15;;;4.20;99.90;;;;;;5059984;28;20224;-77
2022/12/01 03:25:09;;;;;;;74.13;36.67;;;4.20;99.90;;;;;;5058961;28;20301;-78
2022/12/01 03:27:40;;;;;;;86.55;38.92;;;4.10;99.90;;;;;;5058822;28;20224;-77
2022/12/01 03:30:09;;;;;;;80.80;39.97;;;4.10;99.90;;;;;;5062649;28;20240;-77
2022/12/01 03:32:46;;;;;;;85.85;40.55;;;4.10;99.90;;;;;;5063186;28;20216;-77
2022/12/01 03:35:17;;;;;;;77.28;39.10;;;4.10;99.90;;;;;;5058314;28;20220;-76
2022/12/01 03:37:49;;;;;;;86.35;38.65;;;4.20;99.90;;;;;;5060353;28;20229;-78
2022/12/01 03:40:21;;;;;;;80.15;38.28;;;4.10;99.90;;;;;;5063324;28;20301;-77
2022/12/01 03:42:53;;;;;;;78.97;38.83;;;4.10;99.90;;;;;;5077912;28;20220;-76
2022/12/01 03:45:24;;;;;;;75.68;37.65;;;4.10;99.90;;;;;;5075152;28;20603;-78
2022/12/01 03:47:53;;;;;;;76.20;37.00;;;4.20;99.90;;;;;;5080011;28;20657;-78
2022/12/01 03:50:26;;;;;;;69.70;37.85;;;4.10;99.90;;;;;;5078903;28;20258;-78
2022/12/01 03:53:04;;;;;;;74.05;38.60;;;4.10;99.90;;;;;;5075070;28;20240;-78
2022/12/01 03:55:36;;;;;;;71.38;38.88;;;4.10;99.90;;;;;;5073860;28;20291;-77
2022/12/01 03:58:08;;;;;;;71.45;35.78;;;4.10;99.90;;;;;;5073539;28;20220;-77
2022/12/01 04:00:36;;;;;;;76.53;37.30;;;4.20;99.90;;;;;;5073088;28;20243;-76
2022/12/01 04:03:05;;;;;;;81.57;38.25;;;4.10;99.90;;;;;;5073235;28;20311;-76
2022/12/01 04:05:34;;;;;;;75.53;36.25;;;4.10;99.90;;;;;;5072352;28;20229;-77
2022/12/01 04:08:02;;;;;;;81.80;36.22;;;4.20;99.90;;;;;;5073474;28;20270;-77
2022/12/01 04:10:29;;;;;;;69.28;36.25;;;4.20;99.90;;;;;;5073269;28;20228;-76
2022/12/01 04:12:58;;;;;;;66.22;36.72;;;4.20;99.90;;;;;;5072595;28;20277;-77
2022/12/01 04:15:26;;;;;;;69.57;33.75;;;4.10;99.90;;;;;;5072432;28;20212;-76
2022/12/01 04:17:54;;;;;;;71.68;36.17;;;4.10;99.90;;;;;;5072194;28;20220;-77
2022/12/01 04:20:22;;;;;;;76.78;37.30;;;4.10;99.90;;;;;;5064144;28;20260;-77
2022/12/01 04:22:49;;;;;;;71.88;34.15;;;4.10;99.90;;;;;;5051396;28;20225;-76
2022/12/01 04:25:19;;;;;;;69.72;35.25;;;4.00;99.90;;;;;;5052849;28;20217;-76
2022/12/01 04:27:46;;;;;;;78.30;35.42;;;4.10;99.90;;;;;;5052036;28;20570;-76
2022/12/01 04:30:14;;;;;;;80.80;36.03;;;4.10;99.90;;;;;;5052660;28;20228;-77
2022/12/01 04:32:42;;;;;;;79.20;35.83;;;4.00;99.90;;;;;;5051780;28;20299;-77
2022/12/01 04:35:11;;;;;;;77.43;35.97;;;4.00;99.90;;;;;;5052237;28;20709;-76
2022/12/01 04:37:40;;;;;;;75.43;35.47;;;3.90;99.90;;;;;;5051708;28;20259;-78
2022/12/01 04:40:08;;;;;;;71.85;38.40;;;3.90;99.90;;;;;;5064827;28;20224;-76
2022/12/01 04:42:35;;;;;;;78.03;39.10;;;3.90;99.90;;;;;;5071958;28;20220;-77
2022/12/01 04:45:06;;;;;;;73.78;37.63;;;3.90;99.90;;;;;;5071992;28;20220;-76
2022/12/01 04:47:33;;;;;;;84.43;37.00;;;3.90;99.90;;;;;;5082941;28;20231;-77
2022/12/01 04:50:00;;;;;;;74.30;35.45;;;3.90;99.90;;;;;;5093090;28;20223;-76
2022/12/01 04:52:27;;;;;;;70.50;38.90;;;3.80;99.90;;;;;;5096255;28;20281;-76
2022/12/01 04:54:55;;;;;;;75.80;36.05;;;3.90;99.90;;;;;;5095680;28;20242;-75
2022/12/01 04:57:22;;;;;;;70.32;36.30;;;3.90;99.90;;;;;;5096824;28;20310;-76
2022/12/01 04:59:49;;;;;;;70.57;36.03;;;3.90;99.90;;;;;;5096021;28;20314;-77
2022/12/01 05:02:16;;;;;;;70.10;37.80;;;3.90;99.90;;;;;;5096365;28;20594;-75
2022/12/01 05:04:47;;;;;;;65.78;36.65;;;3.90;99.90;;;;;;5095844;28;20227;-77
2022/12/01 05:07:14;;;;;;;73.40;36.67;;;3.90;99.90;;;;;;5096723;28;20248;-77
2022/12/01 05:09:41;;;;;;;80.82;37.58;;;3.90;99.90;;;;;;5094886;28;20288;-77
2022/12/01 05:12:09;;;;;;;71.28;37.13;;;3.80;99.90;;;;;;5096464;28;20247;-76
2022/12/01 05:14:36;;;;;;;67.75;36.28;;;3.80;99.90;;;;;;5067194;28;20224;-78
2022/12/01 05:17:04;;;;;;;74.15;36.65;;;3.90;99.90;;;;;;5055155;28;20217;-77
2022/12/01 05:22:17;;;;;;;73.93;39.55;;;3.80;99.90;;;;;;5075884;28;20293;-76
2022/12/01 05:24:44;;;;;;;72.40;39.83;;;3.80;99.90;;;;;;5074670;28;20309;-78
2022/12/01 05:27:14;;;;;;;73.38;38.55;;;3.80;99.90;;;;;;5070004;28;20224;-78
2022/12/01 05:29:41;;;;;;;76.93;35.80;;;3.80;99.90;;;;;;5054572;28;20241;-77
2022/12/01 05:32:09;;;;;;;63.65;35.20;;;3.80;99.90;;;;;;5055722;28;20227;-77
2022/12/01 05:34:36;;;;;;;70.20;36.67;;;3.80;99.90;;;;;;5056392;28;20282;-77
2022/12/01 05:37:03;;;;;;;72.65;39.40;;;3.80;99.90;;;;;;5060669;28;20240;-78
2022/12/01 05:39:30;;;;;;;69.15;38.10;;;3.80;99.90;;;;;;5058556;28;20315;-77
2022/12/01 05:41:57;;;;;;;73.53;39.05;;;3.90;99.90;;;;;;5094389;28;20273;-76
2022/12/01 05:44:26;;;;;;;71.35;39.00;;;3.90;99.90;;;;;;5076585;28;20296;-76
2022/12/01 05:46:53;;;;;;;70.85;39.75;;;3.90;99.90;;;;;;5080514;28;20556;-76
2022/12/01 05:49:20;;;;;;;68.93;39.47;;;3.90;99.90;;;;;;5094943;28;20585;-76
2022/12/01 05:51:47;;;;;;;68.80;37.40;;;3.90;99.90;;;;;;5070005;28;20544;-78
2022/12/01 05:54:15;;;;;;;65.43;39.35;;;3.80;99.90;;;;;;5091324;28;20318;-78
2022/12/01 05:56:42;;;;;;;66.85;37.05;;;3.80;99.90;;;;;;5063976;28;20231;-78
2022/12/01 05:59:09;;;;;;;70.97;39.22;;;3.70;99.90;;;;;;5054548;28;20221;-76
2022/12/01 06:01:37;;;;;;;76.40;40.55;;;3.70;99.90;;;;;;5067055;28;20220;-78
2022/12/01 06:04:05;;;;;;;68.65;36.97;;;3.60;99.90;;;;;;5079150;28;20765;-76
2022/12/01 06:06:32;;;;;;;62.15;35.80;;;3.60;99.90;;;;;;5076320;28;20578;-77
2022/12/01 06:08:59;;;;;;;60.58;35.83;;;3.50;99.90;;;;;;5077270;28;20235;-77
2022/12/01 06:11:26;;;;;;;63.80;35.85;;;3.60;99.90;;;;;;5076725;28;20773;-76
2022/12/01 06:13:55;;;;;;;62.53;35.70;;;3.60;99.90;;;;;;5077748;28;20223;-78
2022/12/01 06:16:22;;;;;;;68.07;36.90;;;3.60;99.90;;;;;;5083272;28;20223;-77
2022/12/01 06:18:51;;;;;;;58.88;34.05;;;3.60;99.90;;;;;;5076786;28;20246;-76
2022/12/01 06:21:17;;;;;;;61.58;35.78;;;3.60;99.90;;;;;;5057741;28;20225;-76
2022/12/01 06:23:45;;;;;;;62.70;34.78;;;3.60;99.90;;;;;;5053717;28;20624;-76
2022/12/01 06:26:12;;;;;;;65.30;38.67;;;3.60;99.90;;;;;;5054109;28;20303;-76
2022/12/01 06:28:39;;;;;;;68.47;39.22;;;3.50;99.90;;;;;;5053472;28;20293;-76
2022/12/01 06:31:06;;;;;;;71.93;37.83;;;3.50;99.90;;;;;;5053667;28;20221;-76
2022/12/01 06:33:34;;;;;;;70.50;38.38;;;3.50;99.90;;;;;;5054587;28;20312;-76
2022/12/01 06:36:04;;;;;;;70.43;39.70;;;3.50;99.90;;;;;;5079545;28;20551;-76
2022/12/01 06:38:34;;;;;;;73.93;41.55;;;3.50;99.90;;;;;;5092971;28;20215;-77
2022/12/01 06:41:01;;;;;;;70.28;38.58;;;3.60;99.90;;;;;;5054198;28;20217;-76
2022/12/01 06:43:28;;;;;;;67.95;38.88;;;3.50;99.90;;;;;;5054262;28;20603;-77
2022/12/01 06:45:57;;;;;;;79.68;43.20;;;3.50;99.90;;;;;;5053314;28;20216;-76
2022/12/01 06:48:25;;;;;;;65.20;38.90;;;3.60;99.90;;;;;;5073113;28;20738;-75
2022/12/01 06:50:51;;;;;;;70.50;42.33;;;3.60;99.90;;;;;;5071984;28;20223;-76
2022/12/01 06:53:20;;;;;;;74.78;41.50;;;3.60;99.90;;;;;;5057533;28;20282;-76
2022/12/01 06:55:47;;;;;;;73.78;40.55;;;3.60;99.90;;;;;;5053214;28;20290;-76
2022/12/01 06:58:14;;;;;;;72.00;38.83;;;3.60;99.90;;;;;;5053333;28;20290;-77
2022/12/01 07:00:41;;;;;;;74.55;40.67;;;3.60;99.90;;;;;;5052840;28;20298;-78
2022/12/01 07:03:08;;;;;;;78.40;42.47;;;3.60;99.90;;;;;;5053586;28;20255;-78
2022/12/01 07:05:36;;;;;;;76.25;38.72;;;3.60;99.90;;;;;;5052979;28;20299;-78
2022/12/01 07:08:05;;;;;;;72.75;40.72;;;3.60;99.90;;;;;;5053732;28;20332;-78
2022/12/01 07:10:33;;;;;;;70.07;40.05;;;3.70;99.90;;;;;;5053846;28;20233;-78
2022/12/01 07:13:01;;;;;;;79.82;41.83;;;3.70;99.90;;;;;;5052726;28;20224;-77
2022/12/01 07:15:32;;;;;;;78.32;44.47;;;3.60;99.90;;;;;;5053119;28;20601;-78
2022/12/01 07:17:59;;;;;;;75.38;41.13;;;3.70;99.90;;;;;;5053890;28;20269;-78
2022/12/01 07:20:26;;;;;;;82.63;42.65;;;3.70;99.90;;;;;;5053416;28;20232;-78
2022/12/01 07:22:54;;;;;;;64.75;41.83;;;3.70;99.90;;;;;;5054076;28;20239;-76
2022/12/01 07:25:22;;;;;;;79.30;43.47;;;3.70;99.90;;;;;;5053074;28;20311;-78
2022/12/01 07:27:58;;;;;;;88.05;45.85;;;3.70;99.90;;;;;;5053107;28;20243;-76
2022/12/01 07:30:26;;;;;;;83.60;43.50;;;3.70;99.90;;;;;;5053037;28;20669;-78
2022/12/01 07:32:53;;;;;;;86.18;45.13;;;3.70;99.90;;;;;;5053118;28;20228;-76
2022/12/01 07:35:20;;;;;;;75.90;42.88;;;3.70;99.90;;;;;;5053040;28;20225;-78
2022/12/01 07:37:56;;;;;;;81.20;41.88;;;3.80;99.90;;;;;;5052010;28;20250;-76
2022/12/01 07:40:24;;;;;;;95.43;47.47;;;3.80;99.90;;;;;;5052701;28;20741;-78
2022/12/01 07:42:52;;;;;;;88.07;43.05;;;3.90;99.90;;;;;;5053374;28;20228;-76
2022/12/01 07:45:19;;;;;;;86.43;44.10;;;3.90;99.90;;;;;;5053591;28;20228;-78
2022/12/01 07:47:46;;;;;;;79.20;43.08;;;3.90;99.90;;;;;;5053025;28;20220;-78
2022/12/01 07:50:13;;;;;;;90.90;45.70;;;4.00;99.90;;;;;;5051983;28;20228;-78
2022/12/01 07:52:40;;;;;;;108.20;49.45;;;4.00;99.90;;;;;;5053360;28;20232;-77
2022/12/01 07:55:08;;;;;;;95.93;49.88;;;4.10;99.90;;;;;;5053187;28;20746;-78
2022/12/01 07:57:35;;;;;;;103.10;49.38;;;4.20;99.90;;;;;;5052933;28;20245;-78
2022/12/01 08:00:04;;;;;;;99.00;49.40;;;4.10;99.90;;;;;;5053768;28;20588;-78
2022/12/01 08:02:32;;;;;;;97.43;49.67;;;4.20;99.90;;;;;;5052303;28;20557;-77
2022/12/01 08:04:59;;;;;;;100.00;51.25;;;4.10;99.90;;;;;;5053553;28;20235;-77
2022/12/01 08:07:27;;;;;;;105.65;53.38;;;4.10;99.90;;;;;;5052905;28;20220;-78
2022/12/01 08:09:54;;;;;;;99.25;48.30;;;4.10;99.90;;;;;;5053681;28;20220;-76
2022/12/01 08:12:22;;;;;;;97.95;52.63;;;4.10;99.90;;;;;;5052297;28;20297;-76
2022/12/01 08:14:50;;;;;;;93.07;48.63;;;4.20;99.90;;;;;;5051213;28;20700;-76
2022/12/01 08:17:18;;;;;;;109.53;55.08;;;4.20;99.90;;;;;;5052736;28;20234;-78
2022/12/01 08:19:48;;;;;;;110.50;54.58;;;4.20;99.90;;;;;;5052565;28;20297;-78
2022/12/01 08:22:15;;;;;;;106.43;48.35;;;4.20;99.90;;;;;;5054970;28;20225;-77
2022/12/01 08:24:42;;;;;;;104.00;51.92;;;4.20;99.90;;;;;;5054583;28;20244;-77
2022/12/01 08:27:09;;;;;;;100.43;51.08;;;4.20;99.90;;;;;;5056284;28;20266;-76
2022/12/01 08:29:38;;;;;;;113.00;55.25;;;4.20;99.90;;;;;;5055864;28;20692;-76
2022/12/01 08:32:06;;;;;;;95.15;51.20;;;4.20;99.90;;;;;;5057080;28;20251;-78
2022/12/01 08:34:40;;;;;;;115.70;51.50;;;4.00;99.90;;;;;;5058081;28;20235;-78
2022/12/01 08:37:07;;;;;;;111.65;50.65;;;4.00;99.90;;;;;;5056947;28;20652;-76
2022/12/01 08:39:34;;;;;;;102.68;52.97;;;4.00;99.90;;;;;;5056049;28;20312;-76
2022/12/01 08:42:01;;;;;;;99.68;53.97;;;4.00;99.90;;;;;;5056626;28;20280;-76
2022/12/01 08:44:28;;;;;;;102.20;51.05;;;4.00;99.90;;;;;;5056491;28;20658;-76
2022/12/01 08:46:55;;;;;;;105.65;51.25;;;4.00;99.90;;;;;;5057420;28;20267;-77
2022/12/01 08:49:22;;;;;;;91.53;49.28;;;4.00;99.90;;;;;;5058618;28;20239;-78
2022/12/01 08:51:51;;;;;;;110.65;50.55;;;3.90;99.90;;;;;;5060578;28;20220;-78
2022/12/01 08:54:18;;;;;;;105.78;51.92;;;4.00;99.90;;;;;;5065370;28;20225;-78
2022/12/01 08:56:45;;;;;;;97.43;47.67;;;4.00;99.90;;;;;;5057925;28;20224;-76
2022/12/01 08:59:20;;;;;;;107.65;52.42;;;3.90;99.90;;;;;;5050668;28;20251;-77
2022/12/01 09:01:54;;;;;;;113.88;52.25;;;3.90;99.90;;;;;;5048930;28;20559;-78
2022/12/01 09:04:25;;;;;;;107.82;53.53;;;3.90;99.90;;;;;;5057887;28;20251;-76
2022/12/01 09:06:55;;;;;;;110.47;54.05;;;3.80;99.90;;;;;;5057381;28;20303;-77
2022/12/01 09:09:26;;;;;;;114.55;50.10;;;3.90;99.90;;;;;;5052538;28;20429;-77
2022/12/01 09:11:54;;;;;;;115.38;53.10;;;3.90;99.90;;;;;;5054972;28;20228;-78
2022/12/01 09:14:24;;;;;;;113.93;52.58;;;3.90;99.90;;;;;;5056389;28;20546;-77
2022/12/01 09:16:51;;;;;;;116.45;54.42;;;4.00;99.90;;;;;;5056090;28;20232;-77
2022/12/01 09:19:21;;;;;;;121.00;54.90;;;4.00;99.90;;;;;;5056186;28;20229;-77
2022/12/01 09:21:48;;;;;;;113.90;54.83;;;4.10;99.90;;;;;;5054456;28;20286;-77
2022/12/01 09:24:16;;;;;;;115.95;54.03;;;4.10;99.90;;;;;;5056728;28;20254;-76
2022/12/01 09:26:43;;;;;;;109.50;54.17;;;4.10;99.90;;;;;;5055729;28;20221;-76
2022/12/01 09:29:13;;;;;;;108.72;52.78;;;4.10;99.90;;;;;;5046656;28;20240;-76
2022/12/01 09:31:40;;;;;;;95.70;50.00;;;4.10;99.90;;;;;;5055671;28;20232;-76
2022/12/01 09:34:11;;;;;;;103.75;50.85;;;4.20;99.90;;;;;;5060233;28;20288;-77
2022/12/01 09:36:39;;;;;;;114.72;53.97;;;4.20;99.90;;;;;;5062493;28;20593;-76
2022/12/01 09:39:07;;;;;;;117.68;53.60;;;4.20;99.90;;;;;;5058765;28;20244;-78
2022/12/01 09:41:38;;;;;;;102.65;51.05;;;4.20;99.90;;;;;;5064824;28;20315;-76
2022/12/01 09:44:16;;;;;;;98.57;49.63;;;4.20;99.90;;;;;;5063432;28;20249;-77
2022/12/01 09:46:46;;;;;;;96.18;49.33;;;4.20;99.90;;;;;;5062271;28;20294;-75
2022/12/01 09:49:18;;;;;;;91.50;48.58;;;4.10;99.90;;;;;;5055224;28;20231;-78
2022/12/01 09:51:46;;;;;;;90.95;48.80;;;4.10;99.90;;;;;;5073665;28;20220;-76
2022/12/01 09:54:14;;;;;;;113.43;50.25;;;4.20;99.90;;;;;;5063418;28;20224;-77
2022/12/01 09:56:48;;;;;;;106.45;52.47;;;4.10;99.90;;;;;;5068957;28;20255;-77
2022/12/01 09:59:22;;;;;;;96.22;49.60;;;4.20;99.90;;;;;;5067216;28;20615;-77
2022/12/01 10:01:54;;;;;;;101.45;47.60;;;4.20;99.90;;;;;;5071014;28;20319;-77
2022/12/01 10:04:25;;;;;;;83.15;44.58;;;4.20;99.90;;;;;;5063095;28;20275;-76
2022/12/01 10:06:59;;;;;;;95.32;47.17;;;4.30;99.90;;;;;;5057451;28;20713;-76
2022/12/01 10:09:33;;;;;;;94.95;46.05;;;4.30;99.90;;;;;;5057353;28;20224;-77
2022/12/01 10:12:10;;;;;;;87.00;43.92;;;4.30;99.90;;;;;;5061226;28;20252;-76
2022/12/01 10:14:37;;;;;;;90.65;48.15;;;4.40;99.90;;;;;;5054776;28;20224;-79
2022/12/01 10:17:17;;;;;;;81.78;44.28;;;4.40;99.90;;;;;;5055404;28;20238;-76
2022/12/01 10:19:52;;;;;;;92.00;46.45;;;4.50;99.90;;;;;;5054501;28;20224;-76
2022/12/01 10:22:42;;;;;;;86.78;44.95;;;4.50;99.90;;;;;;5054664;28;20224;-78
2022/12/01 10:25:21;;;;;;;85.32;45.30;;;4.50;99.90;;;;;;5055103;28;20228;-77
2022/12/01 10:28:04;;;;;;;79.15;43.80;;;4.50;99.90;;;;;;5054647;28;20216;-76
2022/12/01 10:30:38;;;;;;;77.88;45.33;;;4.40;99.90;;;;;;5053956;28;20220;-77
2022/12/01 10:33:13;;;;;;;75.13;40.88;;;4.40;99.90;;;;;;5053892;28;20257;-77
2022/12/01 10:35:40;;;;;;;84.40;43.88;;;4.50;99.90;;;;;;5053503;28;20228;-77
2022/12/01 10:38:13;;;;;;;84.40;47.20;;;4.50;99.90;;;;;;5054207;28;20225;-77
2022/12/01 10:40:42;;;;;;;84.22;47.58;;;4.50;99.90;;;;;;5053535;28;20303;-78
2022/12/01 10:43:11;;;;;;;76.38;44.33;;;4.50;99.90;;;;;;5054238;28;20263;-78
2022/12/01 10:45:43;;;;;;;85.28;45.83;;;4.50;99.90;;;;;;5054008;28;20722;-76
2022/12/01 10:48:15;;;;;;;83.95;46.13;;;4.50;99.90;;;;;;5052967;28;20216;-76
2022/12/01 10:50:43;;;;;;;80.35;44.20;;;4.50;99.90;;;;;;5053021;28;20237;-76
2022/12/01 10:53:27;;;;;;;76.18;43.38;;;4.60;99.90;;;;;;5053257;28;20598;-76
2022/12/01 10:56:02;;;;;;;75.03;42.95;;;4.60;99.90;;;;;;5052465;28;20311;-78
2022/12/01 10:58:32;;;;;;;79.68;42.88;;;4.70;99.90;;;;;;5053471;28;20275;-77
2022/12/01 11:01:02;;;;;;;70.78;41.60;;;4.70;99.90;;;;;;5053243;28;20733;-77
2022/12/01 11:03:34;;;;;;;71.57;44.15;;;4.70;99.90;;;;;;5053144;28;20304;-77
2022/12/01 11:06:05;;;;;;;72.05;42.17;;;4.70;99.90;;;;;;5054385;28;20282;-77
2022/12/01 11:08:38;;;;;;;80.50;43.15;;;4.70;99.90;;;;;;5053237;28;20231;-78
2022/12/01 11:11:24;;;;;;;78.82;43.70;;;4.60;99.90;;;;;;5054325;28;20728;-78
2022/12/01 11:13:55;;;;;;;79.95;46.30;;;4.60;99.90;;;;;;5054029;28;20323;-78
2022/12/01 11:16:42;;;;;;;82.05;48.30;;;4.70;99.90;;;;;;5053722;28;20228;-78
2022/12/01 11:19:28;;;;;;;72.63;42.70;;;4.70;99.90;;;;;;5053248;28;20262;-77
2022/12/01 11:21:57;;;;;;;73.93;42.17;;;4.70;99.90;;;;;;5053287;28;20546;-78
2022/12/01 11:24:40;;;;;;;80.45;43.72;;;4.70;99.90;;;;;;5053677;28;20303;-78
2022/12/01 11:27:17;;;;;;;72.93;42.70;;;4.70;99.90;;;;;;5053463;28;20254;-77
2022/12/01 11:29:48;;;;;;;75.88;40.55;;;4.70;99.90;;;;;;5053289;28;20550;-77
2022/12/01 11:32:21;;;;;;;70.63;41.08;;;4.70;99.90;;;;;;5052320;28;20246;-78
2022/12/01 11:34:55;;;;;;;71.10;38.67;;;4.60;99.90;;;;;;5050055;28;20231;-78
2022/12/01 11:37:25;;;;;;;68.70;40.38;;;4.60;99.90;;;;;;5052485;28;20235;-78
2022/12/01 11:39:54;;;;;;;67.68;40.22;;;4.60;99.90;;;;;;5053551;28;20571;-78
2022/12/01 11:42:25;;;;;;;68.40;41.55;;;4.60;99.90;;;;;;5051623;28;20220;-77
2022/12/01 11:44:57;;;;;;;70.28;42.13;;;4.60;99.90;;;;;;5048574;28;20364;-76
2022/12/01 11:47:26;;;;;;;68.22;41.28;;;4.70;99.90;;;;;;5060390;28;20640;-75
2022/12/01 11:49:59;;;;;;;70.50;41.33;;;4.60;99.90;;;;;;5053680;28;20609;-78
2022/12/01 11:52:30;;;;;;;72.57;42.28;;;4.70;99.90;;;;;;5048292;28;20228;-77
2022/12/01 11:55:02;;;;;;;68.70;41.40;;;4.70;99.90;;;;;;5053126;28;20297;-76
2022/12/01 11:57:33;;;;;;;63.90;39.22;;;4.70;99.90;;;;;;5052302;28;20223;-77
2022/12/01 12:00:02;;;;;;;71.53;43.08;;;4.70;99.90;;;;;;5052760;28;20224;-77
2022/12/01 12:02:38;;;;;;;70.43;41.28;;;4.60;99.90;;;;;;5052847;28;20708;-76
2022/12/01 12:05:36;;;;;;;65.63;40.90;;;4.60;99.90;;;;;;5053236;28;20301;-77
2022/12/01 12:08:12;;;;;;;65.55;39.95;;;4.60;99.90;;;;;;5052064;28;20410;-76
2022/12/01 12:10:47;;;;;;;67.20;41.30;;;4.60;99.90;;;;;;5053170;28;20616;-77
2022/12/01 12:13:40;;;;;;;66.00;41.15;;;4.60;99.90;;;;;;5052435;28;21140;-77
2022/12/01 12:16:24;;;;;;;66.03;38.75;;;4.60;99.90;;;;;;5051703;28;20592;-76
2022/12/01 12:19:06;;;;;;;60.33;37.13;;;4.60;99.90;;;;;;5052036;28;20224;-76
2022/12/01 12:21:39;;;;;;;63.13;39.15;;;4.70;99.90;;;;;;5052311;28;20251;-76
2022/12/01 12:24:30;;;;;;;57.33;35.83;;;4.60;99.90;;;;;;5043178;28;20229;-76
2022/12/01 12:27:07;;;;;;;64.80;38.08;;;4.70;99.90;;;;;;5051739;28;20260;-76
2022/12/01 12:29:49;;;;;;;61.35;37.92;;;4.60;99.90;;;;;;5076160;28;20308;-77
2022/12/01 12:32:34;;;;;;;64.05;38.88;;;4.70;99.90;;;;;;5083551;28;20227;-76
2022/12/01 12:35:13;;;;;;;55.97;35.13;;;4.60;99.90;;;;;;5072121;28;20228;-76
2022/12/01 12:37:51;;;;;;;61.58;38.00;;;4.60;99.90;;;;;;5089143;28;20219;-77
2022/12/01 12:40:36;;;;;;;63.67;36.38;;;4.60;99.90;;;;;;5092468;28;20284;-76
2022/12/01 12:43:19;;;;;;;59.88;36.20;;;4.50;99.90;;;;;;5091383;28;20237;-76
2022/12/01 12:45:54;;;;;;;58.22;38.42;;;4.50;99.90;;;;;;5079195;28;20216;-76
2022/12/01 12:48:34;;;;;;;62.97;38.78;;;4.50;99.90;;;;;;5071951;28;20280;-76
2022/12/01 12:51:11;;;;;;;63.53;38.40;;;4.50;99.90;;;;;;5071647;28;20681;-76
2022/12/01 12:53:43;;;;;;;51.42;32.65;;;4.50;99.90;;;;;;5072163;28;20302;-77
2022/12/01 12:56:15;;;;;;;56.97;36.03;;;4.50;99.90;;;;;;5071562;28;20282;-76
2022/12/01 12:58:53;;;;;;;54.50;36.33;;;4.60;99.90;;;;;;5072799;28;20232;-76
2022/12/01 13:01:24;;;;;;;58.38;36.50;;;4.60;99.90;;;;;;5072285;28;20220;-75